sensor_id;sensor_type;location;lat;lon;timestamp;temperature;humidity
12704;DHT22;6416;52.182;7.650;2022-10-31T00:00:26;17.30;62.10
12704;DHT22;6416;52.182;7.650;2022-10-31T00:02:52;17.30;62.10
12704;DHT22;6416;52.182;7.650;2022-10-31T00:05:17;17.30;62.20
12704;DHT22;6416;52.182;7.650;2022-10-31T00:07:43;17.30;62.20
12704;DHT22;6416;52.182;7.650;2022-10-31T00:10:08;17.30;62.30
12704;DHT22;6416;52.182;7.650;2022-10-31T00:12:34;17.30;62.40
12704;DHT22;6416;52.182;7.650;2022-10-31T00:14:59;17.30;62.30
12704;DHT22;6416;52.182;7.650;2022-10-31T00:17:25;17.30;62.20
12704;DHT22;6416;52.182;7.650;2022-10-31T00:19:50;17.20;62.80
12704;DHT22;6416;52.182;7.650;2022-10-31T00:22:16;17.20;62.20
12704;DHT22;6416;52.182;7.650;2022-10-31T00:24:41;17.20;62.20
12704;DHT22;6416;52.182;7.650;2022-10-31T00:27:07;17.10;62.20
12704;DHT22;6416;52.182;7.650;2022-10-31T00:29:32;17.10;62.30
12704;DHT22;6416;52.182;7.650;2022-10-31T00:31:58;17.00;62.20
12704;DHT22;6416;52.182;7.650;2022-10-31T00:34:23;17.00;62.30
12704;DHT22;6416;52.182;7.650;2022-10-31T00:36:49;17.00;62.40
12704;DHT22;6416;52.182;7.650;2022-10-31T00:39:14;16.90;62.40
12704;DHT22;6416;52.182;7.650;2022-10-31T00:41:40;16.90;63.10
12704;DHT22;6416;52.182;7.650;2022-10-31T00:44:05;16.90;62.50
12704;DHT22;6416;52.182;7.650;2022-10-31T00:46:30;16.90;62.60
12704;DHT22;6416;52.182;7.650;2022-10-31T00:48:56;16.80;62.60
12704;DHT22;6416;52.182;7.650;2022-10-31T00:51:21;16.80;62.70
12704;DHT22;6416;52.182;7.650;2022-10-31T00:53:47;16.80;62.70
12704;DHT22;6416;52.182;7.650;2022-10-31T00:56:12;16.70;62.70
12704;DHT22;6416;52.182;7.650;2022-10-31T00:58:38;16.60;62.60
12704;DHT22;6416;52.182;7.650;2022-10-31T01:01:04;16.60;62.60
12704;DHT22;6416;52.182;7.650;2022-10-31T01:03:31;16.60;62.70
12704;DHT22;6416;52.182;7.650;2022-10-31T01:05:57;16.60;63.00
12704;DHT22;6416;52.182;7.650;2022-10-31T01:08:23;16.50;62.90
12704;DHT22;6416;52.182;7.650;2022-10-31T01:11:06;16.50;63.00
12704;DHT22;6416;52.182;7.650;2022-10-31T01:13:33;16.50;64.10
12704;DHT22;6416;52.182;7.650;2022-10-31T01:16:00;16.50;63.10
12704;DHT22;6416;52.182;7.650;2022-10-31T01:18:26;16.50;63.40
12704;DHT22;6416;52.182;7.650;2022-10-31T01:21:00;16.40;63.30
12704;DHT22;6416;52.182;7.650;2022-10-31T01:23:26;16.50;63.90
12704;DHT22;6416;52.182;7.650;2022-10-31T01:26:06;16.40;63.30
12704;DHT22;6416;52.182;7.650;2022-10-31T01:28:34;16.50;64.10
12704;DHT22;6416;52.182;7.650;2022-10-31T01:31:08;16.40;63.30
12704;DHT22;6416;52.182;7.650;2022-10-31T01:33:34;16.40;63.30
12704;DHT22;6416;52.182;7.650;2022-10-31T01:36:00;16.40;63.90
12704;DHT22;6416;52.182;7.650;2022-10-31T01:38:25;16.40;63.20
12704;DHT22;6416;52.182;7.650;2022-10-31T01:40:51;16.30;63.00
12704;DHT22;6416;52.182;7.650;2022-10-31T01:43:17;16.30;63.10
12704;DHT22;6416;52.182;7.650;2022-10-31T01:45:45;16.30;63.00
12704;DHT22;6416;52.182;7.650;2022-10-31T01:48:15;16.30;63.10
12704;DHT22;6416;52.182;7.650;2022-10-31T01:50:44;16.20;63.10
12704;DHT22;6416;52.182;7.650;2022-10-31T01:53:11;16.20;63.20
12704;DHT22;6416;52.182;7.650;2022-10-31T01:55:40;16.10;63.00
12704;DHT22;6416;52.182;7.650;2022-10-31T01:58:20;16.10;63.30
12704;DHT22;6416;52.182;7.650;2022-10-31T02:00:50;16.10;64.00
12704;DHT22;6416;52.182;7.650;2022-10-31T02:03:17;16.00;63.20
12704;DHT22;6416;52.182;7.650;2022-10-31T02:05:43;16.00;63.20
12704;DHT22;6416;52.182;7.650;2022-10-31T02:08:16;15.90;63.10
12704;DHT22;6416;52.182;7.650;2022-10-31T02:10:44;15.90;63.70
12704;DHT22;6416;52.182;7.650;2022-10-31T02:13:10;15.80;63.30
12704;DHT22;6416;52.182;7.650;2022-10-31T02:15:37;15.80;63.30
12704;DHT22;6416;52.182;7.650;2022-10-31T02:18:04;15.70;63.50
12704;DHT22;6416;52.182;7.650;2022-10-31T02:20:54;15.70;63.50
12704;DHT22;6416;52.182;7.650;2022-10-31T02:34:36;15.60;64.10
12704;DHT22;6416;52.182;7.650;2022-10-31T02:37:11;15.60;64.20
12704;DHT22;6416;52.182;7.650;2022-10-31T02:40:09;15.60;63.20
12704;DHT22;6416;52.182;7.650;2022-10-31T02:43:09;15.50;63.70
12704;DHT22;6416;52.182;7.650;2022-10-31T02:48:39;15.50;64.10
12704;DHT22;6416;52.182;7.650;2022-10-31T02:51:05;15.40;63.00
12704;DHT22;6416;52.182;7.650;2022-10-31T02:53:36;15.30;63.10
12704;DHT22;6416;52.182;7.650;2022-10-31T02:56:16;15.30;63.30
12704;DHT22;6416;52.182;7.650;2022-10-31T02:58:47;15.30;63.60
12704;DHT22;6416;52.182;7.650;2022-10-31T03:09:34;15.10;63.90
12704;DHT22;6416;52.182;7.650;2022-10-31T03:12:12;15.10;64.20
12704;DHT22;6416;52.182;7.650;2022-10-31T03:14:47;15.00;63.30
12704;DHT22;6416;52.182;7.650;2022-10-31T03:17:24;14.90;63.60
12704;DHT22;6416;52.182;7.650;2022-10-31T03:19:53;14.90;63.70
12704;DHT22;6416;52.182;7.650;2022-10-31T03:22:26;14.90;63.60
12704;DHT22;6416;52.182;7.650;2022-10-31T03:24:53;14.80;63.80
12704;DHT22;6416;52.182;7.650;2022-10-31T03:27:29;14.80;63.60
12704;DHT22;6416;52.182;7.650;2022-10-31T03:29:57;14.70;64.00
12704;DHT22;6416;52.182;7.650;2022-10-31T03:32:29;14.70;63.50
12704;DHT22;6416;52.182;7.650;2022-10-31T03:34:59;14.60;63.70
12704;DHT22;6416;52.182;7.650;2022-10-31T03:37:27;14.60;63.70
12704;DHT22;6416;52.182;7.650;2022-10-31T03:39:55;14.60;63.70
12704;DHT22;6416;52.182;7.650;2022-10-31T03:42:25;14.50;63.70
12704;DHT22;6416;52.182;7.650;2022-10-31T03:44:57;14.50;63.80
12704;DHT22;6416;52.182;7.650;2022-10-31T03:47:24;14.50;64.10
12704;DHT22;6416;52.182;7.650;2022-10-31T03:49:50;14.50;63.80
12704;DHT22;6416;52.182;7.650;2022-10-31T03:52:28;14.40;63.80
12704;DHT22;6416;52.182;7.650;2022-10-31T03:54:59;14.40;64.10
12704;DHT22;6416;52.182;7.650;2022-10-31T04:00:11;14.40;64.10
12704;DHT22;6416;52.182;7.650;2022-10-31T04:02:41;14.40;64.00
12704;DHT22;6416;52.182;7.650;2022-10-31T04:05:08;14.40;64.30
12704;DHT22;6416;52.182;7.650;2022-10-31T04:07:40;14.40;64.10
12704;DHT22;6416;52.182;7.650;2022-10-31T04:10:09;14.30;64.30
12704;DHT22;6416;52.182;7.650;2022-10-31T04:12:36;14.30;64.20
12704;DHT22;6416;52.182;7.650;2022-10-31T04:15:03;14.30;64.20
12704;DHT22;6416;52.182;7.650;2022-10-31T04:17:34;14.30;64.30
12704;DHT22;6416;52.182;7.650;2022-10-31T04:20:01;14.30;64.50
12704;DHT22;6416;52.182;7.650;2022-10-31T04:22:26;14.20;64.30
12704;DHT22;6416;52.182;7.650;2022-10-31T04:24:52;14.20;64.40
12704;DHT22;6416;52.182;7.650;2022-10-31T04:27:18;14.20;64.40
12704;DHT22;6416;52.182;7.650;2022-10-31T04:29:43;14.20;64.50
12704;DHT22;6416;52.182;7.650;2022-10-31T04:32:09;14.20;64.50
12704;DHT22;6416;52.182;7.650;2022-10-31T04:34:34;14.20;64.80
12704;DHT22;6416;52.182;7.650;2022-10-31T04:36:59;14.10;64.60
12704;DHT22;6416;52.182;7.650;2022-10-31T04:39:25;14.10;64.70
12704;DHT22;6416;52.182;7.650;2022-10-31T04:41:50;14.10;64.80
12704;DHT22;6416;52.182;7.650;2022-10-31T04:44:16;14.10;64.80
12704;DHT22;6416;52.182;7.650;2022-10-31T04:46:41;14.10;64.80
12704;DHT22;6416;52.182;7.650;2022-10-31T04:49:07;14.10;64.80
12704;DHT22;6416;52.182;7.650;2022-10-31T04:51:32;14.10;64.80
12704;DHT22;6416;52.182;7.650;2022-10-31T04:53:58;14.10;64.90
12704;DHT22;6416;52.182;7.650;2022-10-31T04:56:23;14.10;65.80
12704;DHT22;6416;52.182;7.650;2022-10-31T04:58:49;14.00;65.00
12704;DHT22;6416;52.182;7.650;2022-10-31T05:01:14;14.00;65.80
12704;DHT22;6416;52.182;7.650;2022-10-31T05:03:40;14.00;65.10
12704;DHT22;6416;52.182;7.650;2022-10-31T05:06:06;13.90;65.80
12704;DHT22;6416;52.182;7.650;2022-10-31T05:08:31;13.90;65.10
12704;DHT22;6416;52.182;7.650;2022-10-31T05:11:01;13.90;65.10
12704;DHT22;6416;52.182;7.650;2022-10-31T05:13:26;13.90;65.50
12704;DHT22;6416;52.182;7.650;2022-10-31T05:15:51;13.90;65.20
12704;DHT22;6416;52.182;7.650;2022-10-31T05:18:17;13.90;65.30
12704;DHT22;6416;52.182;7.650;2022-10-31T05:20:42;13.80;65.30
12704;DHT22;6416;52.182;7.650;2022-10-31T05:23:08;13.80;65.40
12704;DHT22;6416;52.182;7.650;2022-10-31T05:25:33;13.80;65.60
12704;DHT22;6416;52.182;7.650;2022-10-31T05:27:59;13.80;65.70
12704;DHT22;6416;52.182;7.650;2022-10-31T05:30:27;13.80;65.80
12704;DHT22;6416;52.182;7.650;2022-10-31T05:32:53;13.80;66.00
12704;DHT22;6416;52.182;7.650;2022-10-31T05:35:26;13.80;66.00
12704;DHT22;6416;52.182;7.650;2022-10-31T05:37:52;13.90;66.50
12704;DHT22;6416;52.182;7.650;2022-10-31T05:40:19;13.80;66.10
12704;DHT22;6416;52.182;7.650;2022-10-31T05:42:46;13.80;66.20
12704;DHT22;6416;52.182;7.650;2022-10-31T05:45:16;13.90;66.30
12704;DHT22;6416;52.182;7.650;2022-10-31T05:47:42;13.80;66.50
12704;DHT22;6416;52.182;7.650;2022-10-31T05:50:14;13.80;66.20
12704;DHT22;6416;52.182;7.650;2022-10-31T05:52:40;13.90;66.20
12704;DHT22;6416;52.182;7.650;2022-10-31T05:55:05;13.90;66.20
12704;DHT22;6416;52.182;7.650;2022-10-31T05:57:32;13.90;66.30
12704;DHT22;6416;52.182;7.650;2022-10-31T05:59:57;13.80;66.10
12704;DHT22;6416;52.182;7.650;2022-10-31T06:02:23;13.80;66.00
12704;DHT22;6416;52.182;7.650;2022-10-31T06:04:48;13.80;66.20
12704;DHT22;6416;52.182;7.650;2022-10-31T06:07:14;13.80;66.10
12704;DHT22;6416;52.182;7.650;2022-10-31T06:09:42;13.80;66.20
12704;DHT22;6416;52.182;7.650;2022-10-31T06:12:08;13.80;66.30
12704;DHT22;6416;52.182;7.650;2022-10-31T06:14:33;13.80;66.40
12704;DHT22;6416;52.182;7.650;2022-10-31T06:16:59;13.70;66.30
12704;DHT22;6416;52.182;7.650;2022-10-31T06:19:24;13.70;66.40
12704;DHT22;6416;52.182;7.650;2022-10-31T06:21:50;13.70;66.40
12704;DHT22;6416;52.182;7.650;2022-10-31T06:24:15;13.70;66.40
12704;DHT22;6416;52.182;7.650;2022-10-31T06:26:41;13.70;66.40
12704;DHT22;6416;52.182;7.650;2022-10-31T06:29:06;13.70;66.30
12704;DHT22;6416;52.182;7.650;2022-10-31T06:31:32;13.70;66.30
12704;DHT22;6416;52.182;7.650;2022-10-31T06:33:57;13.70;66.40
12704;DHT22;6416;52.182;7.650;2022-10-31T06:36:23;13.70;66.50
12704;DHT22;6416;52.182;7.650;2022-10-31T06:38:48;13.70;66.50
12704;DHT22;6416;52.182;7.650;2022-10-31T06:41:14;13.70;66.60
12704;DHT22;6416;52.182;7.650;2022-10-31T06:43:39;13.70;66.60
12704;DHT22;6416;52.182;7.650;2022-10-31T06:46:05;13.70;66.70
12704;DHT22;6416;52.182;7.650;2022-10-31T06:48:31;13.70;66.70
12704;DHT22;6416;52.182;7.650;2022-10-31T06:50:58;13.70;66.80
12704;DHT22;6416;52.182;7.650;2022-10-31T06:53:24;13.70;67.00
12704;DHT22;6416;52.182;7.650;2022-10-31T06:55:49;13.70;67.00
12704;DHT22;6416;52.182;7.650;2022-10-31T06:58:15;13.70;67.10
12704;DHT22;6416;52.182;7.650;2022-10-31T07:00:40;13.70;67.10
12704;DHT22;6416;52.182;7.650;2022-10-31T07:03:10;13.80;67.40
12704;DHT22;6416;52.182;7.650;2022-10-31T07:05:35;13.80;67.50
12704;DHT22;6416;52.182;7.650;2022-10-31T07:08:05;13.90;67.40
12704;DHT22;6416;52.182;7.650;2022-10-31T07:10:32;13.90;67.60
12704;DHT22;6416;52.182;7.650;2022-10-31T07:13:00;13.90;67.50
12704;DHT22;6416;52.182;7.650;2022-10-31T07:15:27;13.90;67.50
12704;DHT22;6416;52.182;7.650;2022-10-31T07:17:53;13.90;67.50
12704;DHT22;6416;52.182;7.650;2022-10-31T07:20:19;14.00;67.70
12704;DHT22;6416;52.182;7.650;2022-10-31T07:22:44;14.00;67.80
12704;DHT22;6416;52.182;7.650;2022-10-31T07:25:10;14.10;68.10
12704;DHT22;6416;52.182;7.650;2022-10-31T07:27:38;14.10;68.00
12704;DHT22;6416;52.182;7.650;2022-10-31T07:30:04;14.20;68.00
12704;DHT22;6416;52.182;7.650;2022-10-31T07:32:45;14.30;68.10
12704;DHT22;6416;52.182;7.650;2022-10-31T07:35:13;14.30;68.80
12704;DHT22;6416;52.182;7.650;2022-10-31T07:37:39;14.40;68.20
12704;DHT22;6416;52.182;7.650;2022-10-31T07:40:05;14.40;68.20
12704;DHT22;6416;52.182;7.650;2022-10-31T07:42:39;14.50;68.50
12704;DHT22;6416;52.182;7.650;2022-10-31T07:45:06;14.50;69.00
12704;DHT22;6416;52.182;7.650;2022-10-31T07:47:42;14.60;68.70
12704;DHT22;6416;52.182;7.650;2022-10-31T07:50:09;14.60;69.50
12704;DHT22;6416;52.182;7.650;2022-10-31T07:52:35;14.60;68.90
12704;DHT22;6416;52.182;7.650;2022-10-31T07:55:00;14.70;68.90
12704;DHT22;6416;52.182;7.650;2022-10-31T07:57:26;14.80;69.10
12704;DHT22;6416;52.182;7.650;2022-10-31T07:59:52;14.80;69.10
12704;DHT22;6416;52.182;7.650;2022-10-31T08:02:17;14.80;69.20
12704;DHT22;6416;52.182;7.650;2022-10-31T08:04:43;14.90;69.30
12704;DHT22;6416;52.182;7.650;2022-10-31T08:07:08;14.90;69.30
12704;DHT22;6416;52.182;7.650;2022-10-31T08:09:34;15.00;69.50
12704;DHT22;6416;52.182;7.650;2022-10-31T08:11:59;15.10;69.70
12704;DHT22;6416;52.182;7.650;2022-10-31T08:14:25;15.10;69.80
12704;DHT22;6416;52.182;7.650;2022-10-31T08:16:51;15.20;69.80
12704;DHT22;6416;52.182;7.650;2022-10-31T08:19:17;15.30;69.80
12704;DHT22;6416;52.182;7.650;2022-10-31T08:21:42;15.30;69.80
12704;DHT22;6416;52.182;7.650;2022-10-31T08:24:08;15.40;70.00
12704;DHT22;6416;52.182;7.650;2022-10-31T08:26:33;15.40;69.90
12704;DHT22;6416;52.182;7.650;2022-10-31T08:28:59;15.50;70.10
12704;DHT22;6416;52.182;7.650;2022-10-31T08:31:24;15.50;70.10
12704;DHT22;6416;52.182;7.650;2022-10-31T08:33:52;15.60;70.30
12704;DHT22;6416;52.182;7.650;2022-10-31T08:36:17;15.60;70.50
12704;DHT22;6416;52.182;7.650;2022-10-31T08:38:43;15.70;70.60
12704;DHT22;6416;52.182;7.650;2022-10-31T08:41:08;15.80;70.90
12704;DHT22;6416;52.182;7.650;2022-10-31T08:43:35;15.90;71.20
12704;DHT22;6416;52.182;7.650;2022-10-31T08:46:00;16.00;71.10
12704;DHT22;6416;52.182;7.650;2022-10-31T08:48:25;16.10;70.90
12704;DHT22;6416;52.182;7.650;2022-10-31T08:50:51;16.10;70.70
12704;DHT22;6416;52.182;7.650;2022-10-31T08:53:18;16.30;70.80
12704;DHT22;6416;52.182;7.650;2022-10-31T08:55:45;16.30;70.80
12704;DHT22;6416;52.182;7.650;2022-10-31T08:58:13;16.40;70.90
12704;DHT22;6416;52.182;7.650;2022-10-31T09:00:38;16.40;71.10
12704;DHT22;6416;52.182;7.650;2022-10-31T09:03:06;16.50;71.30
12704;DHT22;6416;52.182;7.650;2022-10-31T09:05:32;16.60;71.60
12704;DHT22;6416;52.182;7.650;2022-10-31T09:07:59;16.80;71.80
12704;DHT22;6416;52.182;7.650;2022-10-31T09:10:26;16.90;71.90
12704;DHT22;6416;52.182;7.650;2022-10-31T09:13:03;17.00;71.90
12704;DHT22;6416;52.182;7.650;2022-10-31T09:15:30;17.20;72.40
12704;DHT22;6416;52.182;7.650;2022-10-31T09:17:55;17.30;71.90
12704;DHT22;6416;52.182;7.650;2022-10-31T09:20:21;17.40;71.80
12704;DHT22;6416;52.182;7.650;2022-10-31T09:22:47;17.60;72.20
12704;DHT22;6416;52.182;7.650;2022-10-31T09:25:13;17.80;72.50
12704;DHT22;6416;52.182;7.650;2022-10-31T09:27:39;18.00;73.10
12704;DHT22;6416;52.182;7.650;2022-10-31T09:30:05;18.30;73.50
12704;DHT22;6416;52.182;7.650;2022-10-31T09:32:30;18.60;73.60
12704;DHT22;6416;52.182;7.650;2022-10-31T09:34:56;19.00;73.90
12704;DHT22;6416;52.182;7.650;2022-10-31T09:37:21;19.40;74.20
12704;DHT22;6416;52.182;7.650;2022-10-31T09:39:47;19.80;74.40
12704;DHT22;6416;52.182;7.650;2022-10-31T09:47:47;21.40;75.20
12704;DHT22;6416;52.182;7.650;2022-10-31T09:50:22;22.00;73.60
12704;DHT22;6416;52.182;7.650;2022-10-31T09:53:11;22.50;72.00
12704;DHT22;6416;52.182;7.650;2022-10-31T09:55:42;22.90;69.30
12704;DHT22;6416;52.182;7.650;2022-10-31T09:58:23;23.10;69.00
12704;DHT22;6416;52.182;7.650;2022-10-31T10:00:50;23.10;67.20
12704;DHT22;6416;52.182;7.650;2022-10-31T10:06:08;23.00;65.00
12704;DHT22;6416;52.182;7.650;2022-10-31T10:08:36;23.00;65.60
12704;DHT22;6416;52.182;7.650;2022-10-31T10:19:28;23.40;64.60
12704;DHT22;6416;52.182;7.650;2022-10-31T10:25:02;23.20;63.30
12704;DHT22;6416;52.182;7.650;2022-10-31T10:30:07;23.00;63.30
12704;DHT22;6416;52.182;7.650;2022-10-31T10:35:35;22.80;63.40
12704;DHT22;6416;52.182;7.650;2022-10-31T10:38:19;22.70;63.30
12704;DHT22;6416;52.182;7.650;2022-10-31T10:40:46;22.60;63.90
12704;DHT22;6416;52.182;7.650;2022-10-31T10:43:29;22.60;64.20
12704;DHT22;6416;52.182;7.650;2022-10-31T10:48:43;22.50;64.10
12704;DHT22;6416;52.182;7.650;2022-10-31T10:59:51;22.70;64.90
12704;DHT22;6416;52.182;7.650;2022-10-31T11:02:19;22.80;64.70
12704;DHT22;6416;52.182;7.650;2022-10-31T11:04:50;22.80;64.20
12704;DHT22;6416;52.182;7.650;2022-10-31T11:07:16;22.80;63.90
12704;DHT22;6416;52.182;7.650;2022-10-31T11:09:41;22.70;63.70
12704;DHT22;6416;52.182;7.650;2022-10-31T11:12:29;22.70;63.60
12704;DHT22;6416;52.182;7.650;2022-10-31T11:15:00;22.60;63.50
12704;DHT22;6416;52.182;7.650;2022-10-31T11:17:33;22.60;63.60
12704;DHT22;6416;52.182;7.650;2022-10-31T11:20:35;22.50;63.40
12704;DHT22;6416;52.182;7.650;2022-10-31T11:23:01;22.40;63.30
12704;DHT22;6416;52.182;7.650;2022-10-31T11:25:27;22.40;63.10
12704;DHT22;6416;52.182;7.650;2022-10-31T11:28:08;22.30;63.20
12704;DHT22;6416;52.182;7.650;2022-10-31T11:31:07;22.20;63.10
12704;DHT22;6416;52.182;7.650;2022-10-31T11:33:36;22.10;63.00
12704;DHT22;6416;52.182;7.650;2022-10-31T11:36:14;22.10;63.50
12704;DHT22;6416;52.182;7.650;2022-10-31T11:38:42;22.00;64.00
12704;DHT22;6416;52.182;7.650;2022-10-31T11:41:27;22.00;64.00
12704;DHT22;6416;52.182;7.650;2022-10-31T11:43:56;22.10;64.40
12704;DHT22;6416;52.182;7.650;2022-10-31T11:48:55;22.40;66.30
12704;DHT22;6416;52.182;7.650;2022-10-31T11:51:25;22.70;67.10
12704;DHT22;6416;52.182;7.650;2022-10-31T11:53:53;22.90;66.70
12704;DHT22;6416;52.182;7.650;2022-10-31T11:56:19;23.20;66.70
12704;DHT22;6416;52.182;7.650;2022-10-31T11:58:55;23.50;66.20
12704;DHT22;6416;52.182;7.650;2022-10-31T12:01:27;23.70;64.30
12704;DHT22;6416;52.182;7.650;2022-10-31T12:04:10;23.80;63.90
12704;DHT22;6416;52.182;7.650;2022-10-31T12:06:41;23.90;62.20
12704;DHT22;6416;52.182;7.650;2022-10-31T12:09:23;23.90;61.90
12704;DHT22;6416;52.182;7.650;2022-10-31T12:14:25;23.90;61.40
12704;DHT22;6416;52.182;7.650;2022-10-31T12:17:13;23.70;60.70
12704;DHT22;6416;52.182;7.650;2022-10-31T12:22:35;23.50;61.10
12704;DHT22;6416;52.182;7.650;2022-10-31T12:36:03;23.00;61.10
12704;DHT22;6416;52.182;7.650;2022-10-31T12:41:28;22.90;62.10
12704;DHT22;6416;52.182;7.650;2022-10-31T12:44:11;23.10;62.50
12704;DHT22;6416;52.182;7.650;2022-10-31T12:57:42;23.80;61.60
12704;DHT22;6416;52.182;7.650;2022-10-31T13:00:18;23.90;61.10
12704;DHT22;6416;52.182;7.650;2022-10-31T13:05:53;23.80;60.10
12704;DHT22;6416;52.182;7.650;2022-10-31T13:08:28;23.80;60.10
12704;DHT22;6416;52.182;7.650;2022-10-31T13:11:18;23.70;59.70
12704;DHT22;6416;52.182;7.650;2022-10-31T13:14:05;23.60;59.40
12704;DHT22;6416;52.182;7.650;2022-10-31T13:16:37;23.50;59.20
12704;DHT22;6416;52.182;7.650;2022-10-31T13:19:22;23.40;59.20
12704;DHT22;6416;52.182;7.650;2022-10-31T13:22:06;23.30;59.10
12704;DHT22;6416;52.182;7.650;2022-10-31T13:27:59;23.10;59.30
12704;DHT22;6416;52.182;7.650;2022-10-31T13:30:32;22.90;59.60
12704;DHT22;6416;52.182;7.650;2022-10-31T13:36:42;22.70;59.70
12704;DHT22;6416;52.182;7.650;2022-10-31T13:41:57;22.50;59.90
12704;DHT22;6416;52.182;7.650;2022-10-31T13:44:27;22.40;60.00
12704;DHT22;6416;52.182;7.650;2022-10-31T13:46:54;22.40;60.20
12704;DHT22;6416;52.182;7.650;2022-10-31T13:54:37;22.20;60.60
12704;DHT22;6416;52.182;7.650;2022-10-31T13:57:30;22.20;60.60
12704;DHT22;6416;52.182;7.650;2022-10-31T13:59:58;22.10;60.80
12704;DHT22;6416;52.182;7.650;2022-10-31T14:02:30;22.10;60.90
12704;DHT22;6416;52.182;7.650;2022-10-31T14:05:21;22.10;61.00
12704;DHT22;6416;52.182;7.650;2022-10-31T14:07:47;22.00;61.20
12704;DHT22;6416;52.182;7.650;2022-10-31T14:10:49;22.00;61.20
12704;DHT22;6416;52.182;7.650;2022-10-31T14:16:28;21.90;61.50
12704;DHT22;6416;52.182;7.650;2022-10-31T14:19:13;21.90;61.80
12704;DHT22;6416;52.182;7.650;2022-10-31T14:21:42;21.90;61.80
12704;DHT22;6416;52.182;7.650;2022-10-31T14:29:23;21.80;62.00
12704;DHT22;6416;52.182;7.650;2022-10-31T14:32:22;21.80;62.00
12704;DHT22;6416;52.182;7.650;2022-10-31T14:40:24;21.70;62.20
12704;DHT22;6416;52.182;7.650;2022-10-31T14:45:55;21.70;62.30
12704;DHT22;6416;52.182;7.650;2022-10-31T14:48:38;21.70;62.40
12704;DHT22;6416;52.182;7.650;2022-10-31T14:51:14;21.70;62.60
12704;DHT22;6416;52.182;7.650;2022-10-31T14:53:50;21.70;62.60
12704;DHT22;6416;52.182;7.650;2022-10-31T14:56:29;21.70;62.70
12704;DHT22;6416;52.182;7.650;2022-10-31T14:58:58;21.70;62.80
12704;DHT22;6416;52.182;7.650;2022-10-31T15:01:34;21.60;62.70
12704;DHT22;6416;52.182;7.650;2022-10-31T15:04:20;21.60;62.80
12704;DHT22;6416;52.182;7.650;2022-10-31T15:06:50;21.60;62.80
12704;DHT22;6416;52.182;7.650;2022-10-31T15:09:31;21.60;62.70
12704;DHT22;6416;52.182;7.650;2022-10-31T15:11:59;21.60;63.10
12704;DHT22;6416;52.182;7.650;2022-10-31T15:14:27;21.50;62.80
12704;DHT22;6416;52.182;7.650;2022-10-31T15:16:55;21.50;62.90
12704;DHT22;6416;52.182;7.650;2022-10-31T15:19:24;21.50;62.90
12704;DHT22;6416;52.182;7.650;2022-10-31T15:21:53;21.50;63.10
12704;DHT22;6416;52.182;7.650;2022-10-31T15:24:20;21.40;63.00
12704;DHT22;6416;52.182;7.650;2022-10-31T15:26:49;21.40;63.10
12704;DHT22;6416;52.182;7.650;2022-10-31T15:29:18;21.40;63.10
12704;DHT22;6416;52.182;7.650;2022-10-31T15:31:55;21.30;63.10
12704;DHT22;6416;52.182;7.650;2022-10-31T15:37:00;21.20;63.10
12704;DHT22;6416;52.182;7.650;2022-10-31T15:39:25;21.20;63.10
12704;DHT22;6416;52.182;7.650;2022-10-31T15:44:33;21.10;63.10
12704;DHT22;6416;52.182;7.650;2022-10-31T15:47:17;21.10;63.40
12704;DHT22;6416;52.182;7.650;2022-10-31T15:49:54;21.00;63.40
12704;DHT22;6416;52.182;7.650;2022-10-31T15:52:31;21.00;63.60
12704;DHT22;6416;52.182;7.650;2022-10-31T15:55:05;20.90;63.30
12704;DHT22;6416;52.182;7.650;2022-10-31T15:57:42;20.80;63.30
12704;DHT22;6416;52.182;7.650;2022-10-31T16:03:04;20.70;63.80
12704;DHT22;6416;52.182;7.650;2022-10-31T16:05:43;20.70;63.80
12704;DHT22;6416;52.182;7.650;2022-10-31T16:10:59;20.50;64.00
12704;DHT22;6416;52.182;7.650;2022-10-31T16:13:36;20.50;63.70
12704;DHT22;6416;52.182;7.650;2022-10-31T16:16:11;20.40;64.10
12704;DHT22;6416;52.182;7.650;2022-10-31T16:18:39;20.40;63.80
12704;DHT22;6416;52.182;7.650;2022-10-31T16:21:06;20.30;63.80
12704;DHT22;6416;52.182;7.650;2022-10-31T16:23:33;20.30;63.90
12704;DHT22;6416;52.182;7.650;2022-10-31T16:25:58;20.20;63.90
12704;DHT22;6416;52.182;7.650;2022-10-31T16:28:26;20.20;64.20
12704;DHT22;6416;52.182;7.650;2022-10-31T16:30:54;20.10;64.20
12704;DHT22;6416;52.182;7.650;2022-10-31T16:33:33;20.10;64.30
12704;DHT22;6416;52.182;7.650;2022-10-31T16:35:59;20.10;64.80
12704;DHT22;6416;52.182;7.650;2022-10-31T16:38:25;20.00;64.20
12704;DHT22;6416;52.182;7.650;2022-10-31T16:40:51;20.00;64.40
12704;DHT22;6416;52.182;7.650;2022-10-31T16:43:18;20.00;64.60
12704;DHT22;6416;52.182;7.650;2022-10-31T16:45:49;19.90;64.60
12704;DHT22;6416;52.182;7.650;2022-10-31T16:48:21;19.90;64.70
12704;DHT22;6416;52.182;7.650;2022-10-31T16:50:48;19.90;65.00
12704;DHT22;6416;52.182;7.650;2022-10-31T16:53:15;19.90;64.80
12704;DHT22;6416;52.182;7.650;2022-10-31T16:55:57;19.90;65.60
12704;DHT22;6416;52.182;7.650;2022-10-31T16:58:25;19.80;65.30
12704;DHT22;6416;52.182;7.650;2022-10-31T17:00:51;19.80;65.60
12704;DHT22;6416;52.182;7.650;2022-10-31T17:03:17;19.80;64.90
12704;DHT22;6416;52.182;7.650;2022-10-31T17:05:43;19.80;65.00
12704;DHT22;6416;52.182;7.650;2022-10-31T17:08:08;19.80;65.00
12704;DHT22;6416;52.182;7.650;2022-10-31T17:10:34;19.70;64.90
12704;DHT22;6416;52.182;7.650;2022-10-31T17:13:02;19.70;65.00
12704;DHT22;6416;52.182;7.650;2022-10-31T17:15:28;19.70;65.00
12704;DHT22;6416;52.182;7.650;2022-10-31T17:17:57;19.60;64.90
12704;DHT22;6416;52.182;7.650;2022-10-31T17:20:29;19.60;64.90
12704;DHT22;6416;52.182;7.650;2022-10-31T17:22:55;19.60;65.20
12704;DHT22;6416;52.182;7.650;2022-10-31T17:25:23;19.50;64.90
12704;DHT22;6416;52.182;7.650;2022-10-31T17:27:50;19.50;65.10
12704;DHT22;6416;52.182;7.650;2022-10-31T17:30:16;19.50;65.10
12704;DHT22;6416;52.182;7.650;2022-10-31T17:32:42;19.40;65.10
12704;DHT22;6416;52.182;7.650;2022-10-31T17:35:09;19.40;65.20
12704;DHT22;6416;52.182;7.650;2022-10-31T17:37:35;19.40;65.30
12704;DHT22;6416;52.182;7.650;2022-10-31T17:40:01;19.30;65.20
12704;DHT22;6416;52.182;7.650;2022-10-31T17:42:26;19.30;65.30
12704;DHT22;6416;52.182;7.650;2022-10-31T17:44:52;19.30;65.30
12704;DHT22;6416;52.182;7.650;2022-10-31T17:47:17;19.30;65.40
12704;DHT22;6416;52.182;7.650;2022-10-31T17:49:43;19.20;65.40
12704;DHT22;6416;52.182;7.650;2022-10-31T17:52:08;19.20;65.40
12704;DHT22;6416;52.182;7.650;2022-10-31T17:54:34;19.20;65.60
12704;DHT22;6416;52.182;7.650;2022-10-31T17:56:59;19.20;65.70
12704;DHT22;6416;52.182;7.650;2022-10-31T17:59:25;19.20;65.90
12704;DHT22;6416;52.182;7.650;2022-10-31T18:01:50;19.20;65.90
12704;DHT22;6416;52.182;7.650;2022-10-31T18:04:16;19.20;66.70
12704;DHT22;6416;52.182;7.650;2022-10-31T18:06:41;19.20;66.00
12704;DHT22;6416;52.182;7.650;2022-10-31T18:09:07;19.20;65.90
12704;DHT22;6416;52.182;7.650;2022-10-31T18:11:32;19.20;65.80
12704;DHT22;6416;52.182;7.650;2022-10-31T18:13:58;19.20;65.80
12704;DHT22;6416;52.182;7.650;2022-10-31T18:16:25;19.20;65.80
12704;DHT22;6416;52.182;7.650;2022-10-31T18:18:52;19.20;65.90